This is the latest recevied weather packets stored in our database for station/object W8CWV-13. If no packets are shown the sender has not sent any weather packets the latest 10 day(s).
| Time | Temp. | Humidity | Pressure | Rain* | Wind** | Luminosity | Snow |
|---|---|---|---|---|---|---|---|
| 1778194430 | 18.89° C | 100% | 1018 hPa | - | - | - | - |
| 1778193853 | 19.44° C | 100% | 1017.8 hPa | - | - | - | - |
| 1778193279 | 18.89° C | 100% | 1017.8 hPa | - | - | - | - |
| 1778192713 | 19.44° C | 100% | 1017.5 hPa | - | - | - | - |
| 1778192133 | 19.44° C | 100% | 1017.5 hPa | - | - | - | - |
| 1778191563 | 20.56° C | 100% | 1017.2 hPa | - | - | - | - |
| 1778190986 | 21.11° C | 100% | 1016.9 hPa | - | - | - | - |
| 1778190415 | 20.56° C | 100% | 1016.9 hPa | - | - | - | - |
| 1778189838 | 21.11° C | 100% | 1016.9 hPa | - | - | - | - |
| 1778189262 | 20.56° C | 100% | 1016.9 hPa | - | - | - | - |
| 1778188692 | 20.56° C | 100% | 1016.8 hPa | - | - | - | - |
| 1778188122 | 21.11° C | 100% | 1017 hPa | - | - | - | - |
| 1778187544 | 21.67° C | 100% | 1016.6 hPa | - | - | - | - |
| 1778186978 | 21.11° C | 100% | 1016.9 hPa | - | - | - | - |
| 1778186402 | 22.22° C | 100% | 1016.5 hPa | - | - | - | - |
| 1778185830 | 22.22° C | 100% | 1016.9 hPa | - | - | - | - |
| 1778185249 | 22.22° C | 100% | 1016.8 hPa | - | - | - | - |
| 1778184678 | 21.67° C | 100% | 1016.9 hPa | - | - | - | - |
| 1778184103 | 22.78° C | 100% | 1016.8 hPa | - | - | - | - |
| 1778183532 | 22.22° C | 100% | 1016.9 hPa | - | - | - | - |
| 1778182960 | 23.33° C | 100% | 1017 hPa | - | - | - | - |
| 1778182385 | 23.89° C | 100% | 1016.8 hPa | - | - | - | - |
| 1778181805 | 20.56° C | 100% | 1017.6 hPa | - | - | - | - |
| 1778181236 | 20.56° C | 100% | 1017.7 hPa | - | - | - | - |
| 1778180665 | 22.22° C | 100% | 1017.5 hPa | - | - | - | - |
* Rain since midnight (hover to see other rain measurements)
** Current wind speed in m/s (hover to see current wind gust speed)